sensor_id;sensor_type;location;lat;lon;timestamp;temperature;humidity
15143;DHT22;7672;50.834;6.286;2024-01-16T00:00:58;3.80;99.90
15143;DHT22;7672;50.834;6.286;2024-01-16T00:03:25;3.80;99.90
15143;DHT22;7672;50.834;6.286;2024-01-16T00:05:52;3.80;99.90
15143;DHT22;7672;50.834;6.286;2024-01-16T00:08:19;3.80;99.90
15143;DHT22;7672;50.834;6.286;2024-01-16T00:10:46;3.80;99.90
15143;DHT22;7672;50.834;6.286;2024-01-16T00:13:13;3.80;99.90
15143;DHT22;7672;50.834;6.286;2024-01-16T00:15:40;3.80;99.90
15143;DHT22;7672;50.834;6.286;2024-01-16T00:18:08;3.80;99.90
15143;DHT22;7672;50.834;6.286;2024-01-16T00:20:35;3.80;99.90
15143;DHT22;7672;50.834;6.286;2024-01-16T00:23:03;3.70;99.90
15143;DHT22;7672;50.834;6.286;2024-01-16T00:25:30;3.70;99.90
15143;DHT22;7672;50.834;6.286;2024-01-16T00:27:57;3.70;99.90
15143;DHT22;7672;50.834;6.286;2024-01-16T00:30:24;3.70;99.90
15143;DHT22;7672;50.834;6.286;2024-01-16T00:32:51;3.60;99.90
15143;DHT22;7672;50.834;6.286;2024-01-16T00:35:18;3.60;99.90
15143;DHT22;7672;50.834;6.286;2024-01-16T00:37:45;3.60;99.90
15143;DHT22;7672;50.834;6.286;2024-01-16T00:40:12;3.60;99.90
15143;DHT22;7672;50.834;6.286;2024-01-16T00:42:40;3.60;99.90
15143;DHT22;7672;50.834;6.286;2024-01-16T00:45:07;3.60;99.90
15143;DHT22;7672;50.834;6.286;2024-01-16T00:47:34;3.60;99.90
15143;DHT22;7672;50.834;6.286;2024-01-16T00:50:01;3.60;99.90
15143;DHT22;7672;50.834;6.286;2024-01-16T00:52:29;3.60;99.90
15143;DHT22;7672;50.834;6.286;2024-01-16T00:54:56;3.60;99.90
15143;DHT22;7672;50.834;6.286;2024-01-16T00:57:23;3.60;99.90
15143;DHT22;7672;50.834;6.286;2024-01-16T00:59:49;3.60;99.90
15143;DHT22;7672;50.834;6.286;2024-01-16T01:02:16;3.60;99.90
15143;DHT22;7672;50.834;6.286;2024-01-16T01:04:43;3.60;99.90
15143;DHT22;7672;50.834;6.286;2024-01-16T01:07:13;3.60;99.90
15143;DHT22;7672;50.834;6.286;2024-01-16T01:09:41;3.60;99.90
15143;DHT22;7672;50.834;6.286;2024-01-16T01:12:08;3.70;99.90
15143;DHT22;7672;50.834;6.286;2024-01-16T01:14:35;3.60;99.90
15143;DHT22;7672;50.834;6.286;2024-01-16T01:17:02;3.70;99.90
15143;DHT22;7672;50.834;6.286;2024-01-16T01:19:29;3.70;99.90
15143;DHT22;7672;50.834;6.286;2024-01-16T01:21:56;3.70;99.90
15143;DHT22;7672;50.834;6.286;2024-01-16T01:24:23;3.70;99.90
15143;DHT22;7672;50.834;6.286;2024-01-16T01:26:50;3.70;99.90
15143;DHT22;7672;50.834;6.286;2024-01-16T01:29:17;3.70;99.90
15143;DHT22;7672;50.834;6.286;2024-01-16T01:31:47;3.70;99.90
15143;DHT22;7672;50.834;6.286;2024-01-16T01:34:15;3.70;99.90
15143;DHT22;7672;50.834;6.286;2024-01-16T01:36:43;3.70;99.90
15143;DHT22;7672;50.834;6.286;2024-01-16T01:39:10;3.70;99.90
15143;DHT22;7672;50.834;6.286;2024-01-16T01:41:38;3.70;99.90
15143;DHT22;7672;50.834;6.286;2024-01-16T01:44:06;3.70;99.90
15143;DHT22;7672;50.834;6.286;2024-01-16T01:46:35;3.70;99.90
15143;DHT22;7672;50.834;6.286;2024-01-16T01:49:02;3.70;99.90
15143;DHT22;7672;50.834;6.286;2024-01-16T01:51:30;3.70;99.90
15143;DHT22;7672;50.834;6.286;2024-01-16T01:53:57;3.70;99.90
15143;DHT22;7672;50.834;6.286;2024-01-16T01:56:25;3.70;99.90
15143;DHT22;7672;50.834;6.286;2024-01-16T01:58:57;3.70;99.90
15143;DHT22;7672;50.834;6.286;2024-01-16T02:01:26;3.70;99.90
15143;DHT22;7672;50.834;6.286;2024-01-16T02:03:55;3.70;99.90
15143;DHT22;7672;50.834;6.286;2024-01-16T02:06:23;3.70;99.90
15143;DHT22;7672;50.834;6.286;2024-01-16T02:08:51;3.70;99.90
15143;DHT22;7672;50.834;6.286;2024-01-16T02:11:18;3.70;99.90
15143;DHT22;7672;50.834;6.286;2024-01-16T02:13:44;3.70;99.90
15143;DHT22;7672;50.834;6.286;2024-01-16T02:16:19;3.70;99.90
15143;DHT22;7672;50.834;6.286;2024-01-16T02:18:47;3.70;99.90
15143;DHT22;7672;50.834;6.286;2024-01-16T02:21:21;3.70;99.90
15143;DHT22;7672;50.834;6.286;2024-01-16T02:23:48;3.70;99.90
15143;DHT22;7672;50.834;6.286;2024-01-16T02:26:16;3.70;99.90
15143;DHT22;7672;50.834;6.286;2024-01-16T02:28:43;3.70;99.90
15143;DHT22;7672;50.834;6.286;2024-01-16T02:31:10;3.70;99.90
15143;DHT22;7672;50.834;6.286;2024-01-16T02:33:38;3.70;99.90
15143;DHT22;7672;50.834;6.286;2024-01-16T02:36:05;3.70;99.90
15143;DHT22;7672;50.834;6.286;2024-01-16T02:38:32;3.70;99.90
15143;DHT22;7672;50.834;6.286;2024-01-16T02:40:59;3.70;99.90
15143;DHT22;7672;50.834;6.286;2024-01-16T02:43:26;3.70;99.90
15143;DHT22;7672;50.834;6.286;2024-01-16T02:45:54;3.70;99.90
15143;DHT22;7672;50.834;6.286;2024-01-16T02:48:21;3.70;99.90
15143;DHT22;7672;50.834;6.286;2024-01-16T02:50:48;3.70;99.90
15143;DHT22;7672;50.834;6.286;2024-01-16T02:53:15;3.70;99.90
15143;DHT22;7672;50.834;6.286;2024-01-16T02:55:42;3.70;99.90
15143;DHT22;7672;50.834;6.286;2024-01-16T02:58:09;3.70;99.90
15143;DHT22;7672;50.834;6.286;2024-01-16T03:00:36;3.70;99.90
15143;DHT22;7672;50.834;6.286;2024-01-16T03:03:04;3.70;99.90
15143;DHT22;7672;50.834;6.286;2024-01-16T03:05:31;3.70;99.90
15143;DHT22;7672;50.834;6.286;2024-01-16T03:07:58;3.70;99.90
15143;DHT22;7672;50.834;6.286;2024-01-16T03:10:25;3.70;99.90
15143;DHT22;7672;50.834;6.286;2024-01-16T03:12:52;3.70;99.90
15143;DHT22;7672;50.834;6.286;2024-01-16T03:15:19;3.70;99.90
15143;DHT22;7672;50.834;6.286;2024-01-16T03:17:47;3.70;99.90
15143;DHT22;7672;50.834;6.286;2024-01-16T03:20:15;3.70;99.90
15143;DHT22;7672;50.834;6.286;2024-01-16T03:22:43;3.70;99.90
15143;DHT22;7672;50.834;6.286;2024-01-16T03:25:11;3.70;99.90
15143;DHT22;7672;50.834;6.286;2024-01-16T03:27:38;3.60;99.90
15143;DHT22;7672;50.834;6.286;2024-01-16T03:30:06;3.60;99.90
15143;DHT22;7672;50.834;6.286;2024-01-16T03:32:34;3.60;99.90
15143;DHT22;7672;50.834;6.286;2024-01-16T03:35:02;3.60;99.90
15143;DHT22;7672;50.834;6.286;2024-01-16T03:37:29;3.60;99.90
15143;DHT22;7672;50.834;6.286;2024-01-16T03:39:56;3.60;99.90
15143;DHT22;7672;50.834;6.286;2024-01-16T03:42:24;3.60;99.90
15143;DHT22;7672;50.834;6.286;2024-01-16T03:44:51;3.60;99.90
15143;DHT22;7672;50.834;6.286;2024-01-16T03:47:18;3.60;99.90
15143;DHT22;7672;50.834;6.286;2024-01-16T03:49:45;3.60;99.90
15143;DHT22;7672;50.834;6.286;2024-01-16T03:52:13;3.60;99.90
15143;DHT22;7672;50.834;6.286;2024-01-16T03:54:40;3.60;99.90
15143;DHT22;7672;50.834;6.286;2024-01-16T03:57:06;3.60;99.90
15143;DHT22;7672;50.834;6.286;2024-01-16T03:59:36;3.60;99.90
15143;DHT22;7672;50.834;6.286;2024-01-16T04:02:04;3.60;99.90
15143;DHT22;7672;50.834;6.286;2024-01-16T04:04:31;3.60;99.90
15143;DHT22;7672;50.834;6.286;2024-01-16T04:06:57;3.60;99.90
15143;DHT22;7672;50.834;6.286;2024-01-16T04:09:24;3.60;99.90
15143;DHT22;7672;50.834;6.286;2024-01-16T04:11:51;3.60;99.90
15143;DHT22;7672;50.834;6.286;2024-01-16T04:14:18;3.60;99.90
15143;DHT22;7672;50.834;6.286;2024-01-16T04:16:45;3.60;99.90
15143;DHT22;7672;50.834;6.286;2024-01-16T04:19:12;3.60;99.90
15143;DHT22;7672;50.834;6.286;2024-01-16T04:21:39;3.60;99.90
15143;DHT22;7672;50.834;6.286;2024-01-16T04:24:06;3.60;99.90
15143;DHT22;7672;50.834;6.286;2024-01-16T04:26:36;3.60;99.90
15143;DHT22;7672;50.834;6.286;2024-01-16T04:29:04;3.60;99.90
15143;DHT22;7672;50.834;6.286;2024-01-16T04:31:38;3.60;99.90
15143;DHT22;7672;50.834;6.286;2024-01-16T04:34:06;3.60;99.90
15143;DHT22;7672;50.834;6.286;2024-01-16T04:36:33;3.60;99.90
15143;DHT22;7672;50.834;6.286;2024-01-16T04:38:59;3.60;99.90
15143;DHT22;7672;50.834;6.286;2024-01-16T04:41:27;3.60;99.90
15143;DHT22;7672;50.834;6.286;2024-01-16T04:43:54;3.60;99.90
15143;DHT22;7672;50.834;6.286;2024-01-16T04:46:21;3.60;99.90
15143;DHT22;7672;50.834;6.286;2024-01-16T04:48:47;3.70;99.90
15143;DHT22;7672;50.834;6.286;2024-01-16T04:51:15;3.70;99.90
15143;DHT22;7672;50.834;6.286;2024-01-16T04:53:41;3.70;99.90
15143;DHT22;7672;50.834;6.286;2024-01-16T04:56:08;3.60;99.90
15143;DHT22;7672;50.834;6.286;2024-01-16T04:58:35;3.70;99.90
15143;DHT22;7672;50.834;6.286;2024-01-16T05:01:02;3.70;99.90
15143;DHT22;7672;50.834;6.286;2024-01-16T05:03:29;3.70;99.90
15143;DHT22;7672;50.834;6.286;2024-01-16T05:05:56;3.70;99.90
15143;DHT22;7672;50.834;6.286;2024-01-16T05:08:23;3.70;99.90
15143;DHT22;7672;50.834;6.286;2024-01-16T05:10:51;3.70;99.90
15143;DHT22;7672;50.834;6.286;2024-01-16T05:13:18;3.70;99.90
15143;DHT22;7672;50.834;6.286;2024-01-16T05:15:45;3.70;99.90
15143;DHT22;7672;50.834;6.286;2024-01-16T05:18:12;3.70;99.90
15143;DHT22;7672;50.834;6.286;2024-01-16T05:20:40;3.70;99.90
15143;DHT22;7672;50.834;6.286;2024-01-16T05:23:07;3.70;99.90
15143;DHT22;7672;50.834;6.286;2024-01-16T05:25:34;3.70;99.90
15143;DHT22;7672;50.834;6.286;2024-01-16T05:28:00;3.70;99.90
15143;DHT22;7672;50.834;6.286;2024-01-16T05:30:27;3.70;99.90
15143;DHT22;7672;50.834;6.286;2024-01-16T05:32:54;3.70;99.90
15143;DHT22;7672;50.834;6.286;2024-01-16T05:35:22;3.70;99.90
15143;DHT22;7672;50.834;6.286;2024-01-16T05:37:51;3.70;99.90
15143;DHT22;7672;50.834;6.286;2024-01-16T05:40:18;3.60;99.90
15143;DHT22;7672;50.834;6.286;2024-01-16T05:42:45;3.60;99.90
15143;DHT22;7672;50.834;6.286;2024-01-16T05:45:12;3.60;99.90
15143;DHT22;7672;50.834;6.286;2024-01-16T05:47:40;3.60;99.90
15143;DHT22;7672;50.834;6.286;2024-01-16T05:50:07;3.60;99.90
15143;DHT22;7672;50.834;6.286;2024-01-16T05:52:35;3.60;99.90
15143;DHT22;7672;50.834;6.286;2024-01-16T05:55:04;3.60;99.90
15143;DHT22;7672;50.834;6.286;2024-01-16T05:57:31;3.60;99.90
15143;DHT22;7672;50.834;6.286;2024-01-16T06:00:00;3.60;99.90
15143;DHT22;7672;50.834;6.286;2024-01-16T06:02:31;3.50;99.90
15143;DHT22;7672;50.834;6.286;2024-01-16T06:04:58;3.50;99.90
15143;DHT22;7672;50.834;6.286;2024-01-16T06:07:25;3.50;99.90
15143;DHT22;7672;50.834;6.286;2024-01-16T06:09:52;3.50;99.90
15143;DHT22;7672;50.834;6.286;2024-01-16T06:12:19;3.50;99.90
15143;DHT22;7672;50.834;6.286;2024-01-16T06:14:47;3.50;99.90
15143;DHT22;7672;50.834;6.286;2024-01-16T06:17:14;3.50;99.90
15143;DHT22;7672;50.834;6.286;2024-01-16T06:19:40;3.40;99.90
15143;DHT22;7672;50.834;6.286;2024-01-16T06:22:07;3.40;99.90
15143;DHT22;7672;50.834;6.286;2024-01-16T06:24:35;3.40;99.90
15143;DHT22;7672;50.834;6.286;2024-01-16T06:27:05;3.40;99.90
15143;DHT22;7672;50.834;6.286;2024-01-16T06:29:33;3.40;99.90
15143;DHT22;7672;50.834;6.286;2024-01-16T06:32:01;3.40;99.90
15143;DHT22;7672;50.834;6.286;2024-01-16T06:34:28;3.40;99.90
15143;DHT22;7672;50.834;6.286;2024-01-16T06:36:55;3.20;99.90
15143;DHT22;7672;50.834;6.286;2024-01-16T06:39:23;3.30;99.90
15143;DHT22;7672;50.834;6.286;2024-01-16T06:41:50;3.30;99.90
15143;DHT22;7672;50.834;6.286;2024-01-16T06:44:18;3.20;99.90
15143;DHT22;7672;50.834;6.286;2024-01-16T06:46:45;3.20;99.90
15143;DHT22;7672;50.834;6.286;2024-01-16T06:49:12;3.20;99.90
15143;DHT22;7672;50.834;6.286;2024-01-16T06:51:39;3.10;99.90
15143;DHT22;7672;50.834;6.286;2024-01-16T06:54:06;3.00;99.90
15143;DHT22;7672;50.834;6.286;2024-01-16T06:56:33;3.00;99.90
15143;DHT22;7672;50.834;6.286;2024-01-16T06:59:00;2.90;99.90
15143;DHT22;7672;50.834;6.286;2024-01-16T07:01:27;2.90;99.90
15143;DHT22;7672;50.834;6.286;2024-01-16T07:03:54;2.80;99.90
15143;DHT22;7672;50.834;6.286;2024-01-16T07:06:21;2.80;99.90
15143;DHT22;7672;50.834;6.286;2024-01-16T07:08:48;2.70;99.90
15143;DHT22;7672;50.834;6.286;2024-01-16T07:11:15;2.70;99.90
15143;DHT22;7672;50.834;6.286;2024-01-16T07:13:43;3.10;99.90
15143;DHT22;7672;50.834;6.286;2024-01-16T07:16:11;2.70;99.90
15143;DHT22;7672;50.834;6.286;2024-01-16T07:18:38;2.60;99.90
15143;DHT22;7672;50.834;6.286;2024-01-16T07:21:20;2.60;99.90
15143;DHT22;7672;50.834;6.286;2024-01-16T07:23:47;2.50;99.90
15143;DHT22;7672;50.834;6.286;2024-01-16T07:26:15;2.50;99.90
15143;DHT22;7672;50.834;6.286;2024-01-16T07:29:09;2.50;99.90
15143;DHT22;7672;50.834;6.286;2024-01-16T07:31:36;2.80;99.90
15143;DHT22;7672;50.834;6.286;2024-01-16T07:34:11;2.40;99.90
15143;DHT22;7672;50.834;6.286;2024-01-16T07:36:38;2.80;99.90
15143;DHT22;7672;50.834;6.286;2024-01-16T07:39:05;2.40;99.90
15143;DHT22;7672;50.834;6.286;2024-01-16T07:41:32;2.30;99.90
15143;DHT22;7672;50.834;6.286;2024-01-16T07:43:59;2.00;99.90
15143;DHT22;7672;50.834;6.286;2024-01-16T07:46:26;2.30;99.90
15143;DHT22;7672;50.834;6.286;2024-01-16T07:48:53;2.30;99.90
15143;DHT22;7672;50.834;6.286;2024-01-16T07:51:20;2.30;99.90
15143;DHT22;7672;50.834;6.286;2024-01-16T07:53:48;2.30;99.90
15143;DHT22;7672;50.834;6.286;2024-01-16T07:56:17;2.30;99.90
15143;DHT22;7672;50.834;6.286;2024-01-16T07:58:44;2.70;99.90
15143;DHT22;7672;50.834;6.286;2024-01-16T08:01:11;2.50;99.90
15143;DHT22;7672;50.834;6.286;2024-01-16T08:04:04;2.30;99.90
15143;DHT22;7672;50.834;6.286;2024-01-16T08:06:31;2.80;99.90
15143;DHT22;7672;50.834;6.286;2024-01-16T08:08:58;2.30;99.90
15143;DHT22;7672;50.834;6.286;2024-01-16T08:11:26;2.30;99.90
15143;DHT22;7672;50.834;6.286;2024-01-16T08:13:53;2.30;99.90
15143;DHT22;7672;50.834;6.286;2024-01-16T08:16:20;2.40;99.90
15143;DHT22;7672;50.834;6.286;2024-01-16T08:18:47;2.30;99.90
15143;DHT22;7672;50.834;6.286;2024-01-16T08:21:14;2.40;99.90
15143;DHT22;7672;50.834;6.286;2024-01-16T08:23:41;2.90;99.90
15143;DHT22;7672;50.834;6.286;2024-01-16T08:26:10;2.40;99.90
15143;DHT22;7672;50.834;6.286;2024-01-16T08:28:37;2.70;99.90
15143;DHT22;7672;50.834;6.286;2024-01-16T08:31:04;2.80;99.90
15143;DHT22;7672;50.834;6.286;2024-01-16T08:33:32;2.40;99.90
15143;DHT22;7672;50.834;6.286;2024-01-16T08:36:09;3.00;99.90
15143;DHT22;7672;50.834;6.286;2024-01-16T08:38:36;2.60;99.90
15143;DHT22;7672;50.834;6.286;2024-01-16T08:41:03;2.90;99.90
15143;DHT22;7672;50.834;6.286;2024-01-16T08:43:33;3.10;99.90
15143;DHT22;7672;50.834;6.286;2024-01-16T08:46:01;3.80;99.90
15143;DHT22;7672;50.834;6.286;2024-01-16T08:48:27;3.40;99.90
15143;DHT22;7672;50.834;6.286;2024-01-16T08:50:55;3.50;99.90
15143;DHT22;7672;50.834;6.286;2024-01-16T08:53:22;3.70;99.90
15143;DHT22;7672;50.834;6.286;2024-01-16T08:55:50;3.90;99.90
15143;DHT22;7672;50.834;6.286;2024-01-16T08:58:17;4.20;99.90
15143;DHT22;7672;50.834;6.286;2024-01-16T09:00:44;4.40;99.90
15143;DHT22;7672;50.834;6.286;2024-01-16T09:03:11;4.70;99.90
15143;DHT22;7672;50.834;6.286;2024-01-16T09:05:38;5.00;99.90
15143;DHT22;7672;50.834;6.286;2024-01-16T09:08:06;5.30;99.90
15143;DHT22;7672;50.834;6.286;2024-01-16T09:10:37;5.50;99.90
15143;DHT22;7672;50.834;6.286;2024-01-16T09:13:04;5.60;99.90
15143;DHT22;7672;50.834;6.286;2024-01-16T09:15:31;5.80;99.90
15143;DHT22;7672;50.834;6.286;2024-01-16T09:17:58;5.90;99.90
15143;DHT22;7672;50.834;6.286;2024-01-16T09:20:25;5.90;99.90
15143;DHT22;7672;50.834;6.286;2024-01-16T09:22:52;6.00;99.90
15143;DHT22;7672;50.834;6.286;2024-01-16T09:25:19;6.00;99.90
15143;DHT22;7672;50.834;6.286;2024-01-16T09:27:46;6.10;99.90
15143;DHT22;7672;50.834;6.286;2024-01-16T09:30:13;6.00;99.90
15143;DHT22;7672;50.834;6.286;2024-01-16T09:32:40;6.00;99.90
15143;DHT22;7672;50.834;6.286;2024-01-16T09:35:09;6.00;99.90
15143;DHT22;7672;50.834;6.286;2024-01-16T09:37:37;5.90;99.90
15143;DHT22;7672;50.834;6.286;2024-01-16T09:40:07;6.00;99.90
15143;DHT22;7672;50.834;6.286;2024-01-16T09:42:34;5.90;99.90
15143;DHT22;7672;50.834;6.286;2024-01-16T09:45:01;6.00;99.90
15143;DHT22;7672;50.834;6.286;2024-01-16T09:47:31;6.00;99.90
15143;DHT22;7672;50.834;6.286;2024-01-16T09:49:59;6.00;99.90
15143;DHT22;7672;50.834;6.286;2024-01-16T09:52:30;6.10;99.90
15143;DHT22;7672;50.834;6.286;2024-01-16T09:54:58;6.10;99.90
15143;DHT22;7672;50.834;6.286;2024-01-16T09:57:26;6.10;99.90
15143;DHT22;7672;50.834;6.286;2024-01-16T09:59:54;6.20;99.90
15143;DHT22;7672;50.834;6.286;2024-01-16T10:02:25;6.20;99.90
15143;DHT22;7672;50.834;6.286;2024-01-16T10:04:52;6.10;99.90
15143;DHT22;7672;50.834;6.286;2024-01-16T10:07:20;6.10;99.90
15143;DHT22;7672;50.834;6.286;2024-01-16T10:09:57;6.10;99.90
15143;DHT22;7672;50.834;6.286;2024-01-16T10:12:25;6.00;99.90
15143;DHT22;7672;50.834;6.286;2024-01-16T10:14:52;6.00;99.90
15143;DHT22;7672;50.834;6.286;2024-01-16T10:17:20;6.00;99.90
15143;DHT22;7672;50.834;6.286;2024-01-16T10:19:49;6.00;99.90
15143;DHT22;7672;50.834;6.286;2024-01-16T10:22:24;6.00;99.90
15143;DHT22;7672;50.834;6.286;2024-01-16T10:27:29;6.10;99.90
15143;DHT22;7672;50.834;6.286;2024-01-16T10:29:58;6.20;99.90
15143;DHT22;7672;50.834;6.286;2024-01-16T10:32:38;6.20;99.90
15143;DHT22;7672;50.834;6.286;2024-01-16T10:35:09;6.30;99.90
15143;DHT22;7672;50.834;6.286;2024-01-16T10:37:48;6.40;99.90
15143;DHT22;7672;50.834;6.286;2024-01-16T10:40:20;6.60;99.90
15143;DHT22;7672;50.834;6.286;2024-01-16T10:42:59;6.90;99.90
15143;DHT22;7672;50.834;6.286;2024-01-16T10:45:26;7.20;99.90
15143;DHT22;7672;50.834;6.286;2024-01-16T10:48:04;7.70;99.90
15143;DHT22;7672;50.834;6.286;2024-01-16T10:50:33;8.20;99.90
15143;DHT22;7672;50.834;6.286;2024-01-16T10:53:03;8.70;99.90
15143;DHT22;7672;50.834;6.286;2024-01-16T10:55:31;9.20;99.90
15143;DHT22;7672;50.834;6.286;2024-01-16T10:58:03;9.70;99.90
15143;DHT22;7672;50.834;6.286;2024-01-16T11:00:33;10.20;99.90
15143;DHT22;7672;50.834;6.286;2024-01-16T11:03:09;10.60;99.90
15143;DHT22;7672;50.834;6.286;2024-01-16T11:05:38;10.90;99.90
15143;DHT22;7672;50.834;6.286;2024-01-16T11:08:08;11.10;99.90
15143;DHT22;7672;50.834;6.286;2024-01-16T11:10:37;11.20;99.90
15143;DHT22;7672;50.834;6.286;2024-01-16T11:13:05;11.30;99.90
15143;DHT22;7672;50.834;6.286;2024-01-16T11:15:32;11.40;99.90
15143;DHT22;7672;50.834;6.286;2024-01-16T11:18:00;11.50;99.90
15143;DHT22;7672;50.834;6.286;2024-01-16T11:20:28;11.70;99.90
15143;DHT22;7672;50.834;6.286;2024-01-16T11:23:16;12.00;99.90
15143;DHT22;7672;50.834;6.286;2024-01-16T11:25:43;12.10;99.90
15143;DHT22;7672;50.834;6.286;2024-01-16T11:28:12;12.30;99.90
15143;DHT22;7672;50.834;6.286;2024-01-16T11:30:40;12.60;99.90
15143;DHT22;7672;50.834;6.286;2024-01-16T11:36:00;13.10;99.90
15143;DHT22;7672;50.834;6.286;2024-01-16T11:38:29;13.40;99.90
15143;DHT22;7672;50.834;6.286;2024-01-16T11:40:59;13.60;99.90
15143;DHT22;7672;50.834;6.286;2024-01-16T11:46:07;13.90;99.90
15143;DHT22;7672;50.834;6.286;2024-01-16T11:48:35;14.00;99.90
15143;DHT22;7672;50.834;6.286;2024-01-16T11:51:23;14.10;99.90
15143;DHT22;7672;50.834;6.286;2024-01-16T11:53:50;14.10;99.90
15143;DHT22;7672;50.834;6.286;2024-01-16T12:01:53;13.90;99.90
15143;DHT22;7672;50.834;6.286;2024-01-16T12:04:23;13.70;99.90
15143;DHT22;7672;50.834;6.286;2024-01-16T12:06:57;13.60;99.90
15143;DHT22;7672;50.834;6.286;2024-01-16T12:09:27;13.30;99.90
15143;DHT22;7672;50.834;6.286;2024-01-16T12:11:59;13.10;99.90
15143;DHT22;7672;50.834;6.286;2024-01-16T12:14:28;12.90;99.90
15143;DHT22;7672;50.834;6.286;2024-01-16T12:17:09;12.70;99.90
15143;DHT22;7672;50.834;6.286;2024-01-16T12:19:37;12.50;99.90
15143;DHT22;7672;50.834;6.286;2024-01-16T12:22:08;12.40;99.90
15143;DHT22;7672;50.834;6.286;2024-01-16T12:24:39;12.20;99.90
15143;DHT22;7672;50.834;6.286;2024-01-16T12:27:06;12.00;99.90
15143;DHT22;7672;50.834;6.286;2024-01-16T12:29:35;11.80;99.90
15143;DHT22;7672;50.834;6.286;2024-01-16T12:34:34;11.30;99.90
15143;DHT22;7672;50.834;6.286;2024-01-16T12:37:05;11.10;99.90
15143;DHT22;7672;50.834;6.286;2024-01-16T12:39:34;10.80;99.90
15143;DHT22;7672;50.834;6.286;2024-01-16T12:42:02;10.50;99.90
15143;DHT22;7672;50.834;6.286;2024-01-16T12:44:29;10.30;99.90
15143;DHT22;7672;50.834;6.286;2024-01-16T12:46:57;10.10;99.90
15143;DHT22;7672;50.834;6.286;2024-01-16T12:49:24;9.70;99.90
15143;DHT22;7672;50.834;6.286;2024-01-16T12:52:19;9.50;99.90
15143;DHT22;7672;50.834;6.286;2024-01-16T12:54:48;9.20;99.90
15143;DHT22;7672;50.834;6.286;2024-01-16T12:57:19;9.00;99.90
15143;DHT22;7672;50.834;6.286;2024-01-16T12:59:48;8.80;99.90
15143;DHT22;7672;50.834;6.286;2024-01-16T13:02:23;8.60;99.90
15143;DHT22;7672;50.834;6.286;2024-01-16T13:04:58;8.40;99.90
15143;DHT22;7672;50.834;6.286;2024-01-16T13:07:27;8.10;99.90
15143;DHT22;7672;50.834;6.286;2024-01-16T13:10:10;8.40;99.90
15143;DHT22;7672;50.834;6.286;2024-01-16T13:12:39;7.70;99.90
15143;DHT22;7672;50.834;6.286;2024-01-16T13:15:06;7.60;99.90
15143;DHT22;7672;50.834;6.286;2024-01-16T13:17:36;7.40;99.90
15143;DHT22;7672;50.834;6.286;2024-01-16T13:20:03;7.20;99.90
15143;DHT22;7672;50.834;6.286;2024-01-16T13:22:34;7.00;99.90
15143;DHT22;7672;50.834;6.286;2024-01-16T13:25:12;6.90;99.90
15143;DHT22;7672;50.834;6.286;2024-01-16T13:27:38;6.80;99.90
15143;DHT22;7672;50.834;6.286;2024-01-16T13:30:06;6.60;99.90
15143;DHT22;7672;50.834;6.286;2024-01-16T13:32:33;6.50;99.90
15143;DHT22;7672;50.834;6.286;2024-01-16T13:35:04;6.40;99.90
15143;DHT22;7672;50.834;6.286;2024-01-16T13:37:34;6.30;99.90
15143;DHT22;7672;50.834;6.286;2024-01-16T13:40:05;6.20;99.90
15143;DHT22;7672;50.834;6.286;2024-01-16T13:42:42;6.00;99.90
15143;DHT22;7672;50.834;6.286;2024-01-16T13:45:09;5.70;99.90
15143;DHT22;7672;50.834;6.286;2024-01-16T13:47:40;5.80;99.90
15143;DHT22;7672;50.834;6.286;2024-01-16T13:50:08;5.80;99.90
15143;DHT22;7672;50.834;6.286;2024-01-16T13:52:38;5.70;99.90
15143;DHT22;7672;50.834;6.286;2024-01-16T13:55:09;5.60;99.90
15143;DHT22;7672;50.834;6.286;2024-01-16T13:57:35;5.60;99.90
15143;DHT22;7672;50.834;6.286;2024-01-16T14:00:04;5.50;99.90
15143;DHT22;7672;50.834;6.286;2024-01-16T14:02:37;5.40;99.90
15143;DHT22;7672;50.834;6.286;2024-01-16T14:05:05;5.30;99.90
15143;DHT22;7672;50.834;6.286;2024-01-16T14:07:38;5.20;99.90
15143;DHT22;7672;50.834;6.286;2024-01-16T14:10:07;5.20;99.90
15143;DHT22;7672;50.834;6.286;2024-01-16T14:12:36;5.10;99.90
15143;DHT22;7672;50.834;6.286;2024-01-16T14:15:04;5.00;99.90
15143;DHT22;7672;50.834;6.286;2024-01-16T14:17:38;5.00;99.90
15143;DHT22;7672;50.834;6.286;2024-01-16T14:20:05;4.90;99.90
15143;DHT22;7672;50.834;6.286;2024-01-16T14:22:32;4.90;99.90
15143;DHT22;7672;50.834;6.286;2024-01-16T14:24:59;4.80;99.90
15143;DHT22;7672;50.834;6.286;2024-01-16T14:27:26;4.80;99.90
15143;DHT22;7672;50.834;6.286;2024-01-16T14:29:53;4.70;99.90
15143;DHT22;7672;50.834;6.286;2024-01-16T14:32:21;4.70;99.90
15143;DHT22;7672;50.834;6.286;2024-01-16T14:34:48;4.60;99.90
15143;DHT22;7672;50.834;6.286;2024-01-16T14:37:15;4.60;99.90
15143;DHT22;7672;50.834;6.286;2024-01-16T14:39:43;4.50;99.90
15143;DHT22;7672;50.834;6.286;2024-01-16T14:42:12;4.60;99.90
15143;DHT22;7672;50.834;6.286;2024-01-16T14:45:10;4.50;99.90
15143;DHT22;7672;50.834;6.286;2024-01-16T14:50:51;4.30;99.90
15143;DHT22;7672;50.834;6.286;2024-01-16T14:53:19;4.10;99.90
15143;DHT22;7672;50.834;6.286;2024-01-16T14:56:11;4.30;99.90
15143;DHT22;7672;50.834;6.286;2024-01-16T14:58:40;4.80;99.90
15143;DHT22;7672;50.834;6.286;2024-01-16T15:06:03;4.10;99.90
15143;DHT22;7672;50.834;6.286;2024-01-16T15:13:49;3.90;99.90
15143;DHT22;7672;50.834;6.286;2024-01-16T15:16:36;4.30;99.90
15143;DHT22;7672;50.834;6.286;2024-01-16T15:19:04;3.90;99.90
15143;DHT22;7672;50.834;6.286;2024-01-16T15:21:39;3.80;99.90
15143;DHT22;7672;50.834;6.286;2024-01-16T15:24:06;3.80;99.90
15143;DHT22;7672;50.834;6.286;2024-01-16T15:26:33;3.80;99.90
15143;DHT22;7672;50.834;6.286;2024-01-16T15:29:00;3.80;99.90
15143;DHT22;7672;50.834;6.286;2024-01-16T15:31:27;3.70;99.90
15143;DHT22;7672;50.834;6.286;2024-01-16T15:33:58;3.70;99.90
15143;DHT22;7672;50.834;6.286;2024-01-16T15:36:25;3.70;99.90
15143;DHT22;7672;50.834;6.286;2024-01-16T15:40:08;3.70;99.90
15143;DHT22;7672;50.834;6.286;2024-01-16T15:43:15;3.60;99.90
15143;DHT22;7672;50.834;6.286;2024-01-16T15:45:42;3.60;99.90
15143;DHT22;7672;50.834;6.286;2024-01-16T15:48:09;3.60;99.90
15143;DHT22;7672;50.834;6.286;2024-01-16T15:50:36;3.60;99.90
15143;DHT22;7672;50.834;6.286;2024-01-16T15:53:04;3.60;99.90
15143;DHT22;7672;50.834;6.286;2024-01-16T15:55:43;3.50;99.90
15143;DHT22;7672;50.834;6.286;2024-01-16T15:58:18;3.50;99.90
15143;DHT22;7672;50.834;6.286;2024-01-16T16:00:48;3.30;99.90
15143;DHT22;7672;50.834;6.286;2024-01-16T16:03:15;3.50;99.90
15143;DHT22;7672;50.834;6.286;2024-01-16T16:05:42;3.40;99.90
15143;DHT22;7672;50.834;6.286;2024-01-16T16:08:10;3.40;99.90
15143;DHT22;7672;50.834;6.286;2024-01-16T16:10:38;3.40;99.90
15143;DHT22;7672;50.834;6.286;2024-01-16T16:13:47;3.40;99.90
15143;DHT22;7672;50.834;6.286;2024-01-16T16:16:14;3.30;99.90
15143;DHT22;7672;50.834;6.286;2024-01-16T16:18:41;3.80;99.90
15143;DHT22;7672;50.834;6.286;2024-01-16T16:21:08;3.20;99.90
15143;DHT22;7672;50.834;6.286;2024-01-16T16:23:36;3.20;99.90
15143;DHT22;7672;50.834;6.286;2024-01-16T16:26:03;3.10;99.90
15143;DHT22;7672;50.834;6.286;2024-01-16T16:28:32;3.10;99.90
15143;DHT22;7672;50.834;6.286;2024-01-16T16:30:59;3.10;99.90
15143;DHT22;7672;50.834;6.286;2024-01-16T16:33:26;3.00;99.90
15143;DHT22;7672;50.834;6.286;2024-01-16T16:35:53;3.00;99.90
15143;DHT22;7672;50.834;6.286;2024-01-16T16:38:20;3.00;99.90
15143;DHT22;7672;50.834;6.286;2024-01-16T16:40:47;3.00;99.90